Terminal Aerodrome Forecast
Issued by NWS Shreveport, LA

Home | Current Version | Previous Version | Text Only | Print | Product List | Glossary On
Versions: 1 2 3 4 5 6 7 8 9 10 11 12 13
548
FTUS44 KSHV 091741
TAFGGG
TAF
KGGG 091741Z 0918/1018 30014G25KT P6SM SKC
     FM100000 30008KT P6SM SKC
     FM100300 34004KT P6SM SKC
     FM100800 VRB03KT P6SM SKC
     FM101500 15007KT P6SM SKC=

USA.gov is the U.S. government's official web portal to all federal, state and local government web resources and services.